RYR3071 LEPA-LEBL
Flight info
| Callsign | RYR3071 |
|---|---|
| Flight time | 0h 29m |
| Altitude | 18000 |
| Route | ESPOR L2 NEPAL |
| Aircraft | B738/M-SDE2E3FGHIRWXY/LB1 |
Departure
| Time | 2026-05-04 18:53 |
|---|---|
| Airport | Palma de Mallorca Airport (LEPA) |
Arrival
| Time | 2026-05-04 19:23 |
|---|---|
| Airport | Josep Tarradellas Barcelona-El Prat Airport (LEBL) |
| Time | Latitude | Longitude | Altitude | Speed | Heading |
|---|---|---|---|---|---|
| 2026-05-04 18:08 | 39.55215 | 2.72805 | 20 ft | 0 kts | 194° |
| 2026-05-04 18:43 | 39.55214 | 2.72805 | 20 ft | 1 kts | 194° |
| 2026-05-04 18:43 | 39.55198 | 2.72800 | 22 ft | 5 kts | 193° |
| 2026-05-04 18:43 | 39.55158 | 2.72803 | 22 ft | 1 kts | 141° |
| 2026-05-04 18:44 | 39.55154 | 2.72836 | 21 ft | 6 kts | 79° |
| 2026-05-04 18:44 | 39.55171 | 2.72876 | 23 ft | 9 kts | 58° |
| 2026-05-04 18:44 | 39.55213 | 2.72968 | 21 ft | 1 kts | 57° |
| 2026-05-04 18:44 | 39.55214 | 2.72969 | 21 ft | 1 kts | 57° |
| 2026-05-04 18:45 | 39.55219 | 2.72981 | 21 ft | 2 kts | 57° |
| 2026-05-04 18:45 | 39.55232 | 2.73007 | 21 ft | 4 kts | 57° |
| 2026-05-04 18:45 | 39.55251 | 2.73047 | 21 ft | 6 kts | 63° |
| 2026-05-04 18:45 | 39.55279 | 2.73112 | 21 ft | 12 kts | 59° |
| 2026-05-04 18:46 | 39.55331 | 2.73216 | 20 ft | 14 kts | 57° |
| 2026-05-04 18:46 | 39.55378 | 2.73321 | 21 ft | 13 kts | 54° |
| 2026-05-04 18:46 | 39.55429 | 2.73418 | 20 ft | 13 kts | 59° |
| 2026-05-04 18:46 | 39.55475 | 2.73516 | 19 ft | 12 kts | 59° |
| 2026-05-04 18:47 | 39.55522 | 2.73569 | 19 ft | 4 kts | 358° |
| 2026-05-04 18:47 | 39.55550 | 2.73555 | 19 ft | 4 kts | 330° |
| 2026-05-04 18:47 | 39.55577 | 2.73535 | 19 ft | 4 kts | 329° |
| 2026-05-04 18:47 | 39.55603 | 2.73515 | 20 ft | 4 kts | 329° |
| 2026-05-04 18:48 | 39.55629 | 2.73498 | 18 ft | 5 kts | 343° |
| 2026-05-04 18:48 | 39.55658 | 2.73515 | 20 ft | 5 kts | 51° |
| 2026-05-04 18:48 | 39.55681 | 2.73561 | 18 ft | 7 kts | 57° |
| 2026-05-04 18:48 | 39.55709 | 2.73618 | 18 ft | 8 kts | 57° |
| 2026-05-04 18:49 | 39.55742 | 2.73686 | 18 ft | 10 kts | 58° |
| 2026-05-04 18:49 | 39.55779 | 2.73761 | 17 ft | 11 kts | 58° |
| 2026-05-04 18:49 | 39.55819 | 2.73845 | 17 ft | 11 kts | 59° |
| 2026-05-04 18:49 | 39.55861 | 2.73936 | 17 ft | 12 kts | 58° |
| 2026-05-04 18:50 | 39.55907 | 2.74033 | 17 ft | 13 kts | 59° |
| 2026-05-04 18:50 | 39.55956 | 2.74138 | 17 ft | 14 kts | 59° |
| 2026-05-04 18:50 | 39.56007 | 2.74248 | 17 ft | 15 kts | 59° |
| 2026-05-04 18:50 | 39.56079 | 2.74330 | 16 ft | 15 kts | 4° |
| 2026-05-04 18:51 | 39.56124 | 2.74312 | 16 ft | 0 kts | 329° |
| 2026-05-04 18:51 | 39.56127 | 2.74310 | 17 ft | 2 kts | 329° |
| 2026-05-04 18:51 | 39.56155 | 2.74289 | 17 ft | 8 kts | 329° |
| 2026-05-04 18:52 | 39.56196 | 2.74212 | 16 ft | 14 kts | 267° |
| 2026-05-04 18:52 | 39.56179 | 2.74160 | 16 ft | 2 kts | 238° |
| 2026-05-04 18:52 | 39.56172 | 2.74146 | 16 ft | 2 kts | 238° |
| 2026-05-04 18:52 | 39.56078 | 2.73948 | 17 ft | 64 kts | 239° |
| 2026-05-04 18:53 | 39.55712 | 2.73181 | 19 ft | 133 kts | 237° |
| 2026-05-04 18:53 | 39.55155 | 2.71968 | 280 ft | 173 kts | 239° |
| 2026-05-04 18:53 | 39.54514 | 2.70553 | 1038 ft | 189 kts | 237° |
| 2026-05-04 18:53 | 39.53846 | 2.69099 | 1991 ft | 181 kts | 236° |
| 2026-05-04 18:54 | 39.53112 | 2.67691 | 2552 ft | 200 kts | 235° |
| 2026-05-04 18:54 | 39.52279 | 2.66119 | 2959 ft | 218 kts | 236° |
| 2026-05-04 18:54 | 39.51430 | 2.64501 | 3600 ft | 224 kts | 236° |
| 2026-05-04 18:54 | 39.50538 | 2.62783 | 4139 ft | 238 kts | 237° |
| 2026-05-04 18:55 | 39.49597 | 2.60955 | 4892 ft | 247 kts | 237° |
| 2026-05-04 18:55 | 39.47677 | 2.57196 | 6706 ft | 254 kts | 238° |
| 2026-05-04 18:55 | 39.46700 | 2.55279 | 7650 ft | 255 kts | 237° |
| 2026-05-04 18:56 | 39.45720 | 2.53356 | 8579 ft | 256 kts | 237° |
| 2026-05-04 18:56 | 39.44983 | 2.51258 | 9467 ft | 260 kts | 258° |
| 2026-05-04 18:56 | 39.45040 | 2.48905 | 10309 ft | 269 kts | 280° |
| 2026-05-04 18:56 | 39.45844 | 2.46619 | 10588 ft | 302 kts | 302° |
| 2026-05-04 18:57 | 39.47423 | 2.44615 | 10783 ft | 337 kts | 321° |
| 2026-05-04 18:57 | 39.49547 | 2.43066 | 11147 ft | 358 kts | 328° |
| 2026-05-04 18:57 | 39.51810 | 2.41628 | 11816 ft | 364 kts | 329° |
| 2026-05-04 18:57 | 39.54078 | 2.40146 | 12608 ft | 366 kts | 328° |
| 2026-05-04 18:58 | 39.56419 | 2.38772 | 13362 ft | 374 kts | 334° |
| 2026-05-04 18:58 | 39.58904 | 2.37684 | 14058 ft | 380 kts | 338° |
| 2026-05-04 18:58 | 39.61457 | 2.36702 | 14769 ft | 384 kts | 339° |
| 2026-05-04 18:58 | 39.64040 | 2.35738 | 15465 ft | 387 kts | 339° |
| 2026-05-04 18:59 | 39.66641 | 2.34752 | 16135 ft | 391 kts | 338° |
| 2026-05-04 18:59 | 39.69229 | 2.33748 | 16786 ft | 394 kts | 338° |
| 2026-05-04 18:59 | 39.71867 | 2.32705 | 17437 ft | 398 kts | 337° |
| 2026-05-04 18:59 | 39.74531 | 2.31637 | 17926 ft | 403 kts | 337° |
| 2026-05-04 19:00 | 39.77257 | 2.30530 | 17940 ft | 417 kts | 337° |
| 2026-05-04 19:00 | 39.80059 | 2.29387 | 17950 ft | 424 kts | 337° |
| 2026-05-04 19:00 | 39.82876 | 2.28241 | 17940 ft | 422 kts | 337° |
| 2026-05-04 19:00 | 39.85683 | 2.27100 | 17936 ft | 422 kts | 337° |
| 2026-05-04 19:01 | 39.88454 | 2.25972 | 17936 ft | 422 kts | 337° |
| 2026-05-04 19:01 | 39.91256 | 2.24829 | 17936 ft | 422 kts | 337° |
| 2026-05-04 19:01 | 39.94062 | 2.23682 | 17937 ft | 422 kts | 337° |
| 2026-05-04 19:01 | 39.96869 | 2.22533 | 17935 ft | 423 kts | 337° |
| 2026-05-04 19:02 | 39.99677 | 2.21383 | 17929 ft | 423 kts | 337° |
| 2026-05-04 19:02 | 40.02492 | 2.20228 | 17928 ft | 424 kts | 337° |
| 2026-05-04 19:02 | 40.05305 | 2.19074 | 17928 ft | 424 kts | 337° |
| 2026-05-04 19:02 | 40.08118 | 2.17919 | 17929 ft | 424 kts | 337° |
| 2026-05-04 19:03 | 40.10947 | 2.16756 | 17932 ft | 425 kts | 337° |
| 2026-05-04 19:03 | 40.13766 | 2.15596 | 17926 ft | 425 kts | 337° |
| 2026-05-04 19:03 | 40.16552 | 2.14449 | 17924 ft | 425 kts | 337° |
| 2026-05-04 19:03 | 40.19384 | 2.13281 | 17926 ft | 426 kts | 337° |
| 2026-05-04 19:04 | 40.22207 | 2.12117 | 17924 ft | 426 kts | 337° |
| 2026-05-04 19:04 | 40.25041 | 2.10948 | 17929 ft | 425 kts | 337° |
| 2026-05-04 19:04 | 40.27809 | 2.09810 | 17914 ft | 408 kts | 336° |
| 2026-05-04 19:04 | 40.30472 | 2.08713 | 17908 ft | 397 kts | 336° |
| 2026-05-04 19:05 | 40.33093 | 2.07628 | 17915 ft | 394 kts | 336° |
| 2026-05-04 19:05 | 40.35708 | 2.06539 | 17924 ft | 395 kts | 336° |
| 2026-05-04 19:05 | 40.38325 | 2.05447 | 17751 ft | 389 kts | 336° |
| 2026-05-04 19:05 | 40.40865 | 2.04395 | 17630 ft | 378 kts | 336° |
| 2026-05-04 19:06 | 40.43343 | 2.03366 | 17433 ft | 370 kts | 336° |
| 2026-05-04 19:06 | 40.45804 | 2.02339 | 17018 ft | 369 kts | 336° |
| 2026-05-04 19:06 | 40.48258 | 2.01311 | 16564 ft | 374 kts | 336° |
| 2026-05-04 19:06 | 40.49918 | 2.00613 | 16268 ft | 382 kts | 336° |
| 2026-05-04 19:07 | 40.53298 | 1.99196 | 15611 ft | 384 kts | 337° |
| 2026-05-04 19:07 | 40.55833 | 1.98140 | 15110 ft | 381 kts | 337° |
| 2026-05-04 19:07 | 40.58356 | 1.97088 | 14630 ft | 378 kts | 338° |
| 2026-05-04 19:07 | 40.60849 | 1.96046 | 14128 ft | 376 kts | 338° |
| 2026-05-04 19:08 | 40.62497 | 1.95355 | 13818 ft | 374 kts | 338° |
| 2026-05-04 19:08 | 40.64972 | 1.94318 | 13345 ft | 371 kts | 338° |
| 2026-05-04 19:08 | 40.67415 | 1.93379 | 13173 ft | 362 kts | 346° |
| 2026-05-04 19:08 | 40.69923 | 1.93382 | 12917 ft | 362 kts | 7° |
| 2026-05-04 19:09 | 40.72299 | 1.94495 | 12540 ft | 362 kts | 25° |
| 2026-05-04 19:09 | 40.74516 | 1.96048 | 12126 ft | 360 kts | 27° |
| 2026-05-04 19:09 | 40.76654 | 1.97614 | 12062 ft | 350 kts | 27° |
| 2026-05-04 19:09 | 40.78791 | 1.99190 | 11785 ft | 353 kts | 27° |
| 2026-05-04 19:10 | 40.80954 | 2.00789 | 11545 ft | 357 kts | 27° |
| 2026-05-04 19:10 | 40.82393 | 2.01854 | 11384 ft | 358 kts | 27° |
| 2026-05-04 19:10 | 40.85294 | 2.04003 | 11059 ft | 356 kts | 27° |
| 2026-05-04 19:10 | 40.87428 | 2.05586 | 10811 ft | 354 kts | 27° |
| 2026-05-04 19:11 | 40.89597 | 2.07193 | 10561 ft | 352 kts | 27° |
| 2026-05-04 19:11 | 40.91703 | 2.08756 | 10319 ft | 351 kts | 27° |
| 2026-05-04 19:11 | 40.93827 | 2.10331 | 10028 ft | 351 kts | 27° |
| 2026-05-04 19:11 | 40.95977 | 2.11927 | 9576 ft | 355 kts | 27° |
| 2026-05-04 19:12 | 40.98138 | 2.13532 | 9050 ft | 356 kts | 27° |
| 2026-05-04 19:12 | 41.02440 | 2.16754 | 8037 ft | 353 kts | 28° |
| 2026-05-04 19:12 | 41.04555 | 2.18412 | 7526 ft | 352 kts | 28° |
| 2026-05-04 19:13 | 41.06628 | 2.20054 | 7062 ft | 350 kts | 28° |
| 2026-05-04 19:13 | 41.08701 | 2.21707 | 6565 ft | 341 kts | 28° |
| 2026-05-04 19:13 | 41.10701 | 2.23312 | 6065 ft | 331 kts | 29° |
| 2026-05-04 19:13 | 41.12643 | 2.24874 | 5553 ft | 322 kts | 29° |
| 2026-05-04 19:14 | 41.14553 | 2.26389 | 5051 ft | 315 kts | 28° |
| 2026-05-04 19:14 | 41.16425 | 2.27793 | 4559 ft | 311 kts | 27° |
| 2026-05-04 19:14 | 41.18313 | 2.29182 | 4058 ft | 310 kts | 27° |
| 2026-05-04 19:14 | 41.20208 | 2.30566 | 3563 ft | 311 kts | 27° |
| 2026-05-04 19:15 | 41.22099 | 2.31942 | 3134 ft | 307 kts | 27° |
| 2026-05-04 19:15 | 41.23987 | 2.33312 | 3039 ft | 309 kts | 27° |
| 2026-05-04 19:15 | 41.25871 | 2.34678 | 2987 ft | 307 kts | 27° |
| 2026-05-04 19:15 | 41.27747 | 2.36040 | 2997 ft | 306 kts | 27° |
| 2026-05-04 19:16 | 41.29584 | 2.37377 | 2992 ft | 304 kts | 27° |
| 2026-05-04 19:16 | 41.31448 | 2.38737 | 2991 ft | 307 kts | 27° |
| 2026-05-04 19:16 | 41.33324 | 2.40103 | 2988 ft | 306 kts | 26° |
| 2026-05-04 19:16 | 41.35312 | 2.41021 | 2989 ft | 301 kts | 3° |
| 2026-05-04 19:17 | 41.37359 | 2.40755 | 2993 ft | 289 kts | 338° |
| 2026-05-04 19:17 | 41.38989 | 2.39434 | 2978 ft | 263 kts | 311° |
| 2026-05-04 19:17 | 41.39923 | 2.37491 | 2986 ft | 240 kts | 287° |
| 2026-05-04 19:17 | 41.40206 | 2.35379 | 2982 ft | 226 kts | 268° |
| 2026-05-04 19:18 | 41.39950 | 2.33415 | 2970 ft | 206 kts | 250° |
| 2026-05-04 19:18 | 41.39379 | 2.31773 | 2997 ft | 195 kts | 239° |
| 2026-05-04 19:18 | 41.38490 | 2.30489 | 2982 ft | 182 kts | 210° |
| 2026-05-04 19:18 | 41.37389 | 2.29807 | 3016 ft | 168 kts | 215° |
| 2026-05-04 19:19 | 41.36510 | 2.28867 | 3044 ft | 155 kts | 227° |
| 2026-05-04 19:19 | 41.35813 | 2.27804 | 2872 ft | 153 kts | 234° |
| 2026-05-04 19:19 | 41.35217 | 2.26654 | 2692 ft | 149 kts | 239° |
| 2026-05-04 19:19 | 41.34703 | 2.25502 | 2502 ft | 146 kts | 241° |
| 2026-05-04 19:20 | 41.34211 | 2.24296 | 2303 ft | 148 kts | 243° |
| 2026-05-04 19:20 | 41.33749 | 2.23090 | 2119 ft | 149 kts | 244° |
| 2026-05-04 19:20 | 41.33292 | 2.21845 | 1914 ft | 150 kts | 244° |
| 2026-05-04 19:20 | 41.32828 | 2.20607 | 1724 ft | 147 kts | 243° |
| 2026-05-04 19:21 | 41.32354 | 2.19392 | 1520 ft | 147 kts | 244° |
| 2026-05-04 19:21 | 41.31907 | 2.18149 | 1313 ft | 148 kts | 246° |
| 2026-05-04 19:21 | 41.31487 | 2.16930 | 1099 ft | 147 kts | 246° |
| 2026-05-04 19:21 | 41.31060 | 2.15689 | 943 ft | 148 kts | 245° |
| 2026-05-04 19:22 | 41.30619 | 2.14429 | 754 ft | 152 kts | 244° |
| 2026-05-04 19:22 | 41.30171 | 2.13131 | 565 ft | 155 kts | 246° |
| 2026-05-04 19:22 | 41.29739 | 2.11823 | 333 ft | 153 kts | 244° |
| 2026-05-04 19:22 | 41.29302 | 2.10553 | 126 ft | 149 kts | 244° |
| 2026-05-04 19:23 | 41.28895 | 2.09372 | 13 ft | 128 kts | 245° |
| 2026-05-04 19:23 | 41.28619 | 2.08563 | 22 ft | 49 kts | 245° |
| 2026-05-04 19:23 | 41.28555 | 2.08333 | 20 ft | 18 kts | 256° |
| 2026-05-04 19:23 | 41.28547 | 2.08167 | 20 ft | 18 kts | 273° |
| 2026-05-04 19:24 | 41.28550 | 2.08105 | 19 ft | 1 kts | 275° |
| 2026-05-04 19:24 | 41.28551 | 2.08098 | 19 ft | 0 kts | 275° |
| 2026-05-04 19:24 | 41.28551 | 2.08095 | 19 ft | 1 kts | 275° |
| 2026-05-04 19:24 | 41.28552 | 2.08083 | 18 ft | 0 kts | 275° |
| 2026-05-04 19:25 | 41.28553 | 2.08071 | 18 ft | 2 kts | 276° |
| 2026-05-04 19:25 | 41.28557 | 2.08039 | 20 ft | 4 kts | 293° |
| 2026-05-04 19:25 | 41.28583 | 2.08016 | 16 ft | 5 kts | 332° |
| 2026-05-04 19:25 | 41.28610 | 2.07996 | 16 ft | 5 kts | 332° |
| 2026-05-04 19:26 | 41.28646 | 2.07970 | 15 ft | 7 kts | 320° |
| 2026-05-04 19:26 | 41.28696 | 2.07942 | 17 ft | 10 kts | 339° |
| 2026-05-04 19:26 | 41.28774 | 2.07896 | 16 ft | 13 kts | 335° |
| 2026-05-04 19:26 | 41.28858 | 2.07846 | 16 ft | 13 kts | 334° |
| 2026-05-04 19:27 | 41.28934 | 2.07791 | 17 ft | 5 kts | 336° |